Iberica Hav — C6YI3 — position and weather

sailwx.info

Track history (hours):
 
Tides and Currents Weather Stations Pressure Air Temp Water Temp Dewpoint Dewpoint Depression Visibility Wind Speed Wind Dir Waves Ship Positions

Iberica Hav

Last reported at 2017-Aug-21 00:30 UTC. Time now 2017-Aug-21 02:33 UTC.
Position N 51°08' E 004°56'.

Length 88 m; draft 3 m.

Type: Cargo ship. MMSI: 311034400.

Date/timePositionNaut miles runAvg speedWind from/ knotsBaromVisibWave heightAir tempDewpointWater temp
2017-Aug-21 00:30N 51°08' E 004°56'9 4.2
2017-Aug-20 22:18N 51°11' E 004°42'3 6.0
2017-Aug-20 21:50N 51°12' E 004°38'2 6.3
2017-Aug-20 21:27N 51°13' E 004°34'2 1.4
2017-Aug-20 20:18N 51°14' E 004°32'0 1.2
2017-Aug-20 19:57N 51°14' E 004°31'1 2.2
2017-Aug-20 19:30N 51°14' E 004°30'2 4.7
2017-Aug-20 19:00N 51°14' E 004°26'2 3.3
2017-Aug-20 18:28N 51°15' E 004°24'0 0.0
2017-Aug-20 17:55N 51°15' E 004°24'0 0.0
2017-Aug-20 17:28N 51°15' E 004°24'0 0.0
2017-Aug-20 16:58N 51°15' E 004°24'0 0.0
2017-Aug-20 16:28N 51°15' E 004°24'0 0.0
2017-Aug-20 15:58N 51°15' E 004°24'0 0.0
2017-Aug-20 15:28N 51°15' E 004°24'0 0.0
2017-Aug-20 14:55N 51°15' E 004°24'0 0.0
2017-Aug-20 14:28N 51°15' E 004°24'0 0.0
2017-Aug-20 13:58N 51°15' E 004°24'0 0.0
2017-Aug-20 13:28N 51°15' E 004°24'0 0.0
2017-Aug-20 12:58N 51°15' E 004°24'0 0.0
2017-Aug-20 12:28N 51°15' E 004°24'0 0.0
2017-Aug-20 11:58N 51°15' E 004°24'0 0.0
2017-Aug-20 11:28N 51°15' E 004°24'0 0.0
2017-Aug-20 10:58N 51°15' E 004°24'0 0.0
2017-Aug-20 10:28N 51°15' E 004°24'0 0.0
2017-Aug-20 09:58N 51°15' E 004°24'0 0.0
2017-Aug-20 09:28N 51°15' E 004°24'0 0.0
2017-Aug-20 08:58N 51°15' E 004°24'0 0.0
2017-Aug-20 08:28N 51°15' E 004°24'0 0.0
2017-Aug-20 07:58N 51°15' E 004°24'0 0.0
2017-Aug-20 07:28N 51°15' E 004°24'0 0.0
2017-Aug-20 06:58N 51°15' E 004°24'0 0.0
2017-Aug-20 06:28N 51°15' E 004°24'0 0.0
2017-Aug-20 05:55N 51°15' E 004°24'0 0.0
2017-Aug-20 05:28N 51°15' E 004°24'0 0.0
2017-Aug-20 04:58N 51°15' E 004°24'0 0.0
2017-Aug-20 04:28N 51°15' E 004°24'0 0.0
2017-Aug-20 03:58N 51°15' E 004°24'0 0.0
2017-Aug-20 03:28N 51°15' E 004°24'0 0.0
2017-Aug-20 02:58N 51°15' E 004°24'0 0.0
2017-Aug-20 02:28N 51°15' E 004°24'0 0.0
2017-Aug-20 01:58N 51°15' E 004°24'0 0.0
2017-Aug-20 01:28N 51°15' E 004°24'0 0.0
2017-Aug-20 00:58N 51°15' E 004°24'0 1.1
2017-Aug-20 00:30N 51°15' E 004°23'3 5.4
2017-Aug-20 00:00N 51°17' E 004°20'0 0.0
2017-Aug-19 23:30N 51°17' E 004°20'2 3.7
2017-Aug-19 23:00N 51°18' E 004°18'5 9.9
2017-Aug-19 22:30N 51°22' E 004°13'3 6.5
2017-Aug-19 22:00N 51°22' E 004°08'5 9.1
2017-Aug-19 21:31N 51°25' E 004°02'4 7.0
2017-Aug-19 21:00N 51°23' E 003°57'611.1
2017-Aug-19 20:30N 51°21' E 003°49'510.7
2017-Aug-19 20:00N 51°24' E 003°42'510.3
2017-Aug-19 19:31N 51°25' E 003°34'5 9.9
2017-Aug-19 19:00N 51°25' E 003°26'5 9.7
2017-Aug-19 18:31N 51°24' E 003°18'5 9.2
2017-Aug-19 18:00N 51°23' E 003°11'5 9.3
2017-Aug-19 17:31N 51°22' E 003°04'5 9.2
2017-Aug-19 17:01N 51°22' E 002°56'5 9.3
2017-Aug-19 16:30N 51°22' E 002°49'4 8.4
2017-Aug-19 16:01N 51°21' E 002°42'2 4.2
2017-Aug-19 15:31N 51°20' E 002°39'0 0.8
2017-Aug-19 15:01N 51°20' E 002°39'2 2.0
2017-Aug-19 14:01N 51°21' E 002°36'1 2.6
2017-Aug-19 13:31N 51°21' E 002°34'3 5.2
2017-Aug-19 13:00N 51°22' E 002°30'3 6.7
2017-Aug-19 12:30N 51°20' E 002°25'5 9.9
2017-Aug-19 12:00N 51°18' E 002°18'611.6
2017-Aug-19 11:28N 51°14' E 002°09'611.9
2017-Aug-19 11:00N 51°12' E 002°02'612.2
2017-Aug-19 10:30N 51°08' E 001°53'612.3
2017-Aug-19 10:00N 51°04' E 001°46'130 9.4
2017-Aug-18 20:07N 50°06' W 001°17'110.3
2017-Aug-18 20:00N 50°06' W 001°19'510.6
2017-Aug-18 19:31N 50°04' W 001°27'611.2
2017-Aug-18 19:00N 50°02' W 001°35'611.8
2017-Aug-18 18:30N 50°00' W 001°44'612.3
2017-Aug-18 18:00N 49°59' W 001°53'13610.0
2017-Aug-18 04:18N 48°48' W 004°53'3 9.2
2017-Aug-18 04:01N 48°46' W 004°56'5 9.3
2017-Aug-18 03:30N 48°44' W 005°02'510.0
2017-Aug-18 03:01N 48°41' W 005°08'5 9.9
2017-Aug-18 02:29N 48°38' W 005°14'5 9.8
2017-Aug-18 01:59N 48°34' W 005°19'12 8.9
2017-Aug-18 00:38N 48°22' W 005°21'2610.1
2017-Aug-17 22:03N 47°56' W 005°11'110.5
2017-Aug-17 21:59N 47°56' W 005°11'510.6
2017-Aug-17 21:30N 47°51' W 005°09'510.2
2017-Aug-17 21:00N 47°46' W 005°06'5 9.8
2017-Aug-17 20:30N 47°42' W 005°03'5 9.8
2017-Aug-17 20:01N 47°38' W 004°59'5 9.8
2017-Aug-17 19:27N 47°33' W 004°56'6 9.6
2017-Aug-17 18:47N 47°27' W 004°51'  
2017-Aug-15 06:38N 46°26' W 004°12'3 8.8
2017-Aug-15 06:20N 46°28' W 004°14'51 8.4
2017-Aug-15 00:18N 47°13' W 004°49'19 9.3
2017-Aug-14 22:15N 47°30' W 005°01'4 9.6
2017-Aug-14 21:53N 47°33' W 005°03'5 9.5
2017-Aug-14 21:24N 47°37' W 005°07'4 9.2
2017-Aug-14 21:00N 47°40' W 005°09'6 9.1
2017-Aug-14 20:23N 47°45' W 005°13'4 9.0
2017-Aug-14 19:59N 47°49' W 005°15'4 8.9
2017-Aug-14 19:30N 47°52' W 005°18'4 8.4
2017-Aug-14 18:59N 47°56' W 005°21'7 7.7
2017-Aug-14 18:08N 48°02' W 005°26'2 8.4
2017-Aug-14 17:53N 48°04' W 005°27'106 6.7
2017-Aug-14 02:07N 49°32' W 003°60'1 9.6
2017-Aug-14 02:00N 49°33' W 003°58'6 9.3
2017-Aug-14 01:24N 49°36' W 003°51'12 8.6
2017-Aug-14 00:02N 49°42' W 003°35'0 8.1
2017-Aug-13 23:59N 49°42' W 003°35'4 7.9
2017-Aug-13 23:30N 49°44' W 003°29'4 7.5
2017-Aug-13 23:00N 49°46' W 003°24'4 7.2
2017-Aug-13 22:30N 49°48' W 003°20'16 7.5
2017-Aug-13 20:21N 49°56' W 002°58'3 8.6
2017-Aug-13 20:00N 49°57' W 002°54'6 9.3
2017-Aug-13 19:20N 49°59' W 002°45'3 9.9
2017-Aug-13 19:00N 49°60' W 002°39'96 8.7
2017-Aug-13 08:01N 50°29' W 000°17'1 9.9
2017-Aug-13 07:55N 50°29' W 000°15'410.0
2017-Aug-13 07:30N 50°30' W 000°09'510.1
2017-Aug-13 07:00N 50°32' W 000°02'510.2
2017-Aug-13 06:30N 50°33' E 000°06'510.2
2017-Aug-13 06:00N 50°35' E 000°14'710.0
2017-Aug-13 05:18N 50°37' E 000°24'3 9.7
2017-Aug-13 05:00N 50°38' E 000°28'5 9.3
2017-Aug-13 04:30N 50°40' E 000°35'4 8.9
2017-Aug-13 04:00N 50°42' E 000°41'4 8.4
2017-Aug-13 03:30N 50°45' E 000°46'4 7.9
2017-Aug-13 03:00N 50°47' E 000°52'5 7.5
2017-Aug-13 02:24N 50°49' E 000°57'12 7.3
2017-Aug-13 00:45N 50°57' E 001°12'2 7.8
2017-Aug-13 00:30N 50°58' E 001°15'5 8.5
2017-Aug-12 23:55N 51°01' E 001°21'4 9.7
2017-Aug-12 23:30N 51°04' E 001°26'510.9
2017-Aug-12 23:00N 51°07' E 001°33'611.4
2017-Aug-12 22:30N 51°11' E 001°40'511.0
2017-Aug-12 22:00N 51°15' E 001°46'510.4
2017-Aug-12 21:30N 51°18' E 001°52'5 9.8
2017-Aug-12 21:00N 51°22' E 001°57'4 7.7
2017-Aug-12 20:30N 51°24' E 002°02'4 9.0
2017-Aug-12 20:00N 51°23' E 002°09'4 8.9
2017-Aug-12 19:30N 51°21' E 002°15'4 8.3
2017-Aug-12 19:00N 51°22' E 002°22'4 8.1
2017-Aug-12 18:30N 51°23' E 002°29'4 7.8
2017-Aug-12 18:00N 51°23' E 002°35'4 7.6
2017-Aug-12 17:30N 51°22' E 002°41'4 7.5
2017-Aug-12 17:00N 51°22' E 002°47'4 7.9
2017-Aug-12 16:30N 51°22' E 002°53'4 7.9
2017-Aug-12 16:00N 51°22' E 002°59'4 7.6
2017-Aug-12 15:30N 51°22' E 003°05'4 7.1
2017-Aug-12 15:00N 51°23' E 003°11'3 6.5
2017-Aug-12 14:30N 51°24' E 003°16'4 7.1
2017-Aug-12 14:00N 51°24' E 003°22'4 7.8
2017-Aug-12 13:30N 51°25' E 003°28'4 7.8
2017-Aug-12 12:59N 51°25' E 003°34'4 7.4
2017-Aug-12 12:30N 51°25' E 003°40'4 7.9
2017-Aug-12 12:00N 51°22' E 003°45'4 8.8
2017-Aug-12 11:30N 51°21' E 003°52'5 9.4
2017-Aug-12 11:00N 51°24' E 003°57'3 6.3
2017-Aug-12 10:30N 51°25' E 004°02'4 7.1
2017-Aug-12 10:00N 51°22' E 004°07'4 8.0
2017-Aug-12 09:30N 51°23' E 004°13'510.5
2017-Aug-12 09:00N 51°18' E 004°17'4 8.3
2017-Aug-12 08:30N 51°14' E 004°21'2 4.4
2017-Aug-12 08:00N 51°14' E 004°24'0 0.4
2017-Aug-12 07:30N 51°15' E 004°24'0 0.3
2017-Aug-12 06:59N 51°15' E 004°24'0 0.0
2017-Aug-12 06:30N 51°15' E 004°24'0 0.0
2017-Aug-12 06:00N 51°15' E 004°24'0 0.0
2017-Aug-12 05:30N 51°15' E 004°24'0 0.0
2017-Aug-12 05:00N 51°15' E 004°24'0 0.2
2017-Aug-12 04:30N 51°15' E 004°24'2 3.6
2017-Aug-12 04:00N 51°14' E 004°27'2 3.3
2017-Aug-12 03:30N 51°14' E 004°30'2 2.8
2017-Aug-12 02:51N 51°14' E 004°32'1 2.5
2017-Aug-12 02:26N 51°13' E 004°34'  
Track history (hours):
 
Tides and Currents Weather Stations Pressure Air Temp Water Temp Dewpoint Dewpoint Depression Visibility Wind Speed Wind Dir Waves Ship Positions

Iberica Hav

Last reported at 2017-Aug-21 00:30 UTC. Time now 2017-Aug-21 02:33 UTC.
Position N 51°08' E 004°56'.

Length 88 m; draft 3 m.

Type: Cargo ship. MMSI: 311034400.

Date/timePositionNaut miles runAvg speedWind from/ knotsBaromVisibWave heightAir tempDewpointWater temp
2017-Aug-21 00:30N 51°08' E 004°56'9 4.2
2017-Aug-20 22:18N 51°11' E 004°42'3 6.0
2017-Aug-20 21:50N 51°12' E 004°38'2 6.3
2017-Aug-20 21:27N 51°13' E 004°34'2 1.4
2017-Aug-20 20:18N 51°14' E 004°32'0 1.2
2017-Aug-20 19:57N 51°14' E 004°31'1 2.2
2017-Aug-20 19:30N 51°14' E 004°30'2 4.7
2017-Aug-20 19:00N 51°14' E 004°26'2 3.3
2017-Aug-20 18:28N 51°15' E 004°24'0 0.0
2017-Aug-20 17:55N 51°15' E 004°24'0 0.0
2017-Aug-20 17:28N 51°15' E 004°24'0 0.0
2017-Aug-20 16:58N 51°15' E 004°24'0 0.0
2017-Aug-20 16:28N 51°15' E 004°24'0 0.0
2017-Aug-20 15:58N 51°15' E 004°24'0 0.0
2017-Aug-20 15:28N 51°15' E 004°24'0 0.0
2017-Aug-20 14:55N 51°15' E 004°24'0 0.0
2017-Aug-20 14:28N 51°15' E 004°24'0 0.0
2017-Aug-20 13:58N 51°15' E 004°24'0 0.0
2017-Aug-20 13:28N 51°15' E 004°24'0 0.0
2017-Aug-20 12:58N 51°15' E 004°24'0 0.0
2017-Aug-20 12:28N 51°15' E 004°24'0 0.0
2017-Aug-20 11:58N 51°15' E 004°24'0 0.0
2017-Aug-20 11:28N 51°15' E 004°24'0 0.0
2017-Aug-20 10:58N 51°15' E 004°24'0 0.0
2017-Aug-20 10:28N 51°15' E 004°24'0 0.0
2017-Aug-20 09:58N 51°15' E 004°24'0 0.0
2017-Aug-20 09:28N 51°15' E 004°24'0 0.0
2017-Aug-20 08:58N 51°15' E 004°24'0 0.0
2017-Aug-20 08:28N 51°15' E 004°24'0 0.0
2017-Aug-20 07:58N 51°15' E 004°24'0 0.0
2017-Aug-20 07:28N 51°15' E 004°24'0 0.0
2017-Aug-20 06:58N 51°15' E 004°24'0 0.0
2017-Aug-20 06:28N 51°15' E 004°24'0 0.0
2017-Aug-20 05:55N 51°15' E 004°24'0 0.0
2017-Aug-20 05:28N 51°15' E 004°24'0 0.0
2017-Aug-20 04:58N 51°15' E 004°24'0 0.0
2017-Aug-20 04:28N 51°15' E 004°24'0 0.0
2017-Aug-20 03:58N 51°15' E 004°24'0 0.0
2017-Aug-20 03:28N 51°15' E 004°24'0 0.0
2017-Aug-20 02:58N 51°15' E 004°24'0 0.0
2017-Aug-20 02:28N 51°15' E 004°24'0 0.0
2017-Aug-20 01:58N 51°15' E 004°24'0 0.0
2017-Aug-20 01:28N 51°15' E 004°24'0 0.0
2017-Aug-20 00:58N 51°15' E 004°24'0 1.1
2017-Aug-20 00:30N 51°15' E 004°23'3 5.4
2017-Aug-20 00:00N 51°17' E 004°20'0 0.0
2017-Aug-19 23:30N 51°17' E 004°20'2 3.7
2017-Aug-19 23:00N 51°18' E 004°18'5 9.9
2017-Aug-19 22:30N 51°22' E 004°13'3 6.5
2017-Aug-19 22:00N 51°22' E 004°08'5 9.1
2017-Aug-19 21:31N 51°25' E 004°02'4 7.0
2017-Aug-19 21:00N 51°23' E 003°57'611.1
2017-Aug-19 20:30N 51°21' E 003°49'510.7
2017-Aug-19 20:00N 51°24' E 003°42'510.3
2017-Aug-19 19:31N 51°25' E 003°34'5 9.9
2017-Aug-19 19:00N 51°25' E 003°26'5 9.7
2017-Aug-19 18:31N 51°24' E 003°18'5 9.2
2017-Aug-19 18:00N 51°23' E 003°11'5 9.3
2017-Aug-19 17:31N 51°22' E 003°04'5 9.2
2017-Aug-19 17:01N 51°22' E 002°56'5 9.3
2017-Aug-19 16:30N 51°22' E 002°49'4 8.4
2017-Aug-19 16:01N 51°21' E 002°42'2 4.2
2017-Aug-19 15:31N 51°20' E 002°39'0 0.8
2017-Aug-19 15:01N 51°20' E 002°39'2 2.0
2017-Aug-19 14:01N 51°21' E 002°36'1 2.6
2017-Aug-19 13:31N 51°21' E 002°34'3 5.2
2017-Aug-19 13:00N 51°22' E 002°30'3 6.7
2017-Aug-19 12:30N 51°20' E 002°25'5 9.9
2017-Aug-19 12:00N 51°18' E 002°18'611.6
2017-Aug-19 11:28N 51°14' E 002°09'611.9
2017-Aug-19 11:00N 51°12' E 002°02'612.2
2017-Aug-19 10:30N 51°08' E 001°53'612.3
2017-Aug-19 10:00N 51°04' E 001°46'130 9.4
2017-Aug-18 20:07N 50°06' W 001°17'110.3
2017-Aug-18 20:00N 50°06' W 001°19'510.6
2017-Aug-18 19:31N 50°04' W 001°27'611.2
2017-Aug-18 19:00N 50°02' W 001°35'611.8
2017-Aug-18 18:30N 50°00' W 001°44'612.3
2017-Aug-18 18:00N 49°59' W 001°53'13610.0
2017-Aug-18 04:18N 48°48' W 004°53'3 9.2
2017-Aug-18 04:01N 48°46' W 004°56'5 9.3
2017-Aug-18 03:30N 48°44' W 005°02'510.0
2017-Aug-18 03:01N 48°41' W 005°08'5 9.9
2017-Aug-18 02:29N 48°38' W 005°14'5 9.8
2017-Aug-18 01:59N 48°34' W 005°19'12 8.9
2017-Aug-18 00:38N 48°22' W 005°21'2610.1
2017-Aug-17 22:03N 47°56' W 005°11'110.5
2017-Aug-17 21:59N 47°56' W 005°11'510.6
2017-Aug-17 21:30N 47°51' W 005°09'510.2
2017-Aug-17 21:00N 47°46' W 005°06'5 9.8
2017-Aug-17 20:30N 47°42' W 005°03'5 9.8
2017-Aug-17 20:01N 47°38' W 004°59'5 9.8
2017-Aug-17 19:27N 47°33' W 004°56'6 9.6
2017-Aug-17 18:47N 47°27' W 004°51'  
2017-Aug-15 06:38N 46°26' W 004°12'3 8.8
2017-Aug-15 06:20N 46°28' W 004°14'51 8.4
2017-Aug-15 00:18N 47°13' W 004°49'19 9.3
2017-Aug-14 22:15N 47°30' W 005°01'4 9.6
2017-Aug-14 21:53N 47°33' W 005°03'5 9.5
2017-Aug-14 21:24N 47°37' W 005°07'4 9.2
2017-Aug-14 21:00N 47°40' W 005°09'6 9.1
2017-Aug-14 20:23N 47°45' W 005°13'4 9.0
2017-Aug-14 19:59N 47°49' W 005°15'4 8.9
2017-Aug-14 19:30N 47°52' W 005°18'4 8.4
2017-Aug-14 18:59N 47°56' W 005°21'7 7.7
2017-Aug-14 18:08N 48°02' W 005°26'2 8.4
2017-Aug-14 17:53N 48°04' W 005°27'106 6.7
2017-Aug-14 02:07N 49°32' W 003°60'1 9.6
2017-Aug-14 02:00N 49°33' W 003°58'6 9.3
2017-Aug-14 01:24N 49°36' W 003°51'12 8.6
2017-Aug-14 00:02N 49°42' W 003°35'0 8.1
2017-Aug-13 23:59N 49°42' W 003°35'4 7.9
2017-Aug-13 23:30N 49°44' W 003°29'4 7.5
2017-Aug-13 23:00N 49°46' W 003°24'4 7.2
2017-Aug-13 22:30N 49°48' W 003°20'16 7.5
2017-Aug-13 20:21N 49°56' W 002°58'3 8.6
2017-Aug-13 20:00N 49°57' W 002°54'6 9.3
2017-Aug-13 19:20N 49°59' W 002°45'3 9.9
2017-Aug-13 19:00N 49°60' W 002°39'96 8.7
2017-Aug-13 08:01N 50°29' W 000°17'1 9.9
2017-Aug-13 07:55N 50°29' W 000°15'410.0
2017-Aug-13 07:30N 50°30' W 000°09'510.1
2017-Aug-13 07:00N 50°32' W 000°02'510.2
2017-Aug-13 06:30N 50°33' E 000°06'510.2
2017-Aug-13 06:00N 50°35' E 000°14'710.0
2017-Aug-13 05:18N 50°37' E 000°24'3 9.7
2017-Aug-13 05:00N 50°38' E 000°28'5 9.3
2017-Aug-13 04:30N 50°40' E 000°35'4 8.9
2017-Aug-13 04:00N 50°42' E 000°41'4 8.4
2017-Aug-13 03:30N 50°45' E 000°46'4 7.9
2017-Aug-13 03:00N 50°47' E 000°52'5 7.5
2017-Aug-13 02:24N 50°49' E 000°57'12 7.3
2017-Aug-13 00:45N 50°57' E 001°12'2 7.8
2017-Aug-13 00:30N 50°58' E 001°15'5 8.5
2017-Aug-12 23:55N 51°01' E 001°21'4 9.7
2017-Aug-12 23:30N 51°04' E 001°26'510.9
2017-Aug-12 23:00N 51°07' E 001°33'611.4
2017-Aug-12 22:30N 51°11' E 001°40'511.0
2017-Aug-12 22:00N 51°15' E 001°46'510.4
2017-Aug-12 21:30N 51°18' E 001°52'5 9.8
2017-Aug-12 21:00N 51°22' E 001°57'4 7.7
2017-Aug-12 20:30N 51°24' E 002°02'4 9.0
2017-Aug-12 20:00N 51°23' E 002°09'4 8.9
2017-Aug-12 19:30N 51°21' E 002°15'4 8.3
2017-Aug-12 19:00N 51°22' E 002°22'4 8.1
2017-Aug-12 18:30N 51°23' E 002°29'4 7.8
2017-Aug-12 18:00N 51°23' E 002°35'4 7.6
2017-Aug-12 17:30N 51°22' E 002°41'4 7.5
2017-Aug-12 17:00N 51°22' E 002°47'4 7.9
2017-Aug-12 16:30N 51°22' E 002°53'4 7.9
2017-Aug-12 16:00N 51°22' E 002°59'4 7.6
2017-Aug-12 15:30N 51°22' E 003°05'4 7.1
2017-Aug-12 15:00N 51°23' E 003°11'3 6.5
2017-Aug-12 14:30N 51°24' E 003°16'4 7.1
2017-Aug-12 14:00N 51°24' E 003°22'4 7.8
2017-Aug-12 13:30N 51°25' E 003°28'4 7.8
2017-Aug-12 12:59N 51°25' E 003°34'4 7.4
2017-Aug-12 12:30N 51°25' E 003°40'4 7.9
2017-Aug-12 12:00N 51°22' E 003°45'4 8.8
2017-Aug-12 11:30N 51°21' E 003°52'5 9.4
2017-Aug-12 11:00N 51°24' E 003°57'3 6.3
2017-Aug-12 10:30N 51°25' E 004°02'4 7.1
2017-Aug-12 10:00N 51°22' E 004°07'4 8.0
2017-Aug-12 09:30N 51°23' E 004°13'510.5
2017-Aug-12 09:00N 51°18' E 004°17'4 8.3
2017-Aug-12 08:30N 51°14' E 004°21'2 4.4
2017-Aug-12 08:00N 51°14' E 004°24'0 0.4
2017-Aug-12 07:30N 51°15' E 004°24'0 0.3
2017-Aug-12 06:59N 51°15' E 004°24'0 0.0
2017-Aug-12 06:30N 51°15' E 004°24'0 0.0
2017-Aug-12 06:00N 51°15' E 004°24'0 0.0
2017-Aug-12 05:30N 51°15' E 004°24'0 0.0
2017-Aug-12 05:00N 51°15' E 004°24'0 0.2
2017-Aug-12 04:30N 51°15' E 004°24'2 3.6
2017-Aug-12 04:00N 51°14' E 004°27'2 3.3
2017-Aug-12 03:30N 51°14' E 004°30'2 2.8
2017-Aug-12 02:51N 51°14' E 004°32'1 2.5
2017-Aug-12 02:26N 51°13' E 004°34'  

Dump ship's entire track history